createdAt,value
2022-12-31T00:00:15.688Z,54.13
2022-12-31T00:02:43.105Z,56.83
2022-12-31T00:05:10.777Z,58.42
2022-12-31T00:10:04.725Z,64.22
2022-12-31T00:12:32.064Z,61.88
2022-12-31T00:14:59.330Z,63.70
2022-12-31T00:17:26.653Z,67.63
2022-12-31T00:19:54.027Z,60.85
2022-12-31T00:22:21.277Z,65.68
2022-12-31T00:24:48.548Z,60.05
2022-12-31T00:27:16.360Z,61.65
2022-12-31T00:29:43.671Z,57.60
2022-12-31T00:32:10.860Z,63.65
2022-12-31T00:34:38.101Z,60.22
2022-12-31T00:37:05.394Z,61.58
2022-12-31T00:39:32.716Z,58.13
2022-12-31T00:41:59.967Z,64.53
2022-12-31T00:44:27.161Z,62.95
2022-12-31T00:46:54.465Z,60.92
2022-12-31T00:49:21.895Z,54.88
2022-12-31T00:51:49.654Z,57.55
2022-12-31T00:54:16.977Z,65.82
2022-12-31T00:56:44.181Z,57.95
2022-12-31T00:59:11.370Z,60.22
2022-12-31T01:01:39.978Z,55.70
2022-12-31T01:04:11.232Z,54.92
2022-12-31T01:06:38.997Z,56.83
2022-12-31T01:09:07.243Z,53.03
2022-12-31T01:11:34.646Z,56.75
2022-12-31T01:14:14.261Z,57.72
2022-12-31T01:16:46.156Z,57.70
2022-12-31T01:19:17.461Z,57.10
2022-12-31T01:21:45.877Z,57.72
2022-12-31T01:24:13.408Z,58.78
2022-12-31T01:26:41.136Z,55.67
2022-12-31T01:29:10.070Z,53.58
2022-12-31T01:31:38.098Z,57.22
2022-12-31T01:34:06.208Z,49.97
2022-12-31T01:36:35.367Z,51.65
2022-12-31T01:39:05.546Z,52.53
2022-12-31T01:41:36.070Z,51.22
2022-12-31T01:44:12.400Z,51.83
2022-12-31T01:47:02.508Z,55.50
2022-12-31T01:52:07.591Z,54.25
2022-12-31T01:54:40.165Z,49.28
2022-12-31T01:57:08.642Z,49.70
2022-12-31T01:59:36.233Z,55.47
2022-12-31T02:02:04.613Z,55.22
2022-12-31T02:04:33.122Z,52.63
2022-12-31T02:07:03.269Z,57.88
2022-12-31T02:09:31.480Z,55.78
2022-12-31T02:11:59.309Z,49.92
2022-12-31T02:14:36.542Z,53.35
2022-12-31T02:17:24.922Z,50.40
2022-12-31T02:20:30.666Z,48.58
2022-12-31T02:23:04.089Z,49.38
2022-12-31T02:25:37.632Z,42.20
2022-12-31T02:28:42.723Z,47.40
2022-12-31T02:31:18.880Z,44.97
2022-12-31T02:33:54.911Z,45.05
2022-12-31T02:36:30.084Z,43.20
2022-12-31T02:38:58.525Z,40.65
2022-12-31T02:41:44.531Z,46.00
2022-12-31T02:44:33.988Z,48.90
2022-12-31T02:47:07.337Z,42.97
2022-12-31T02:50:09.509Z,45.53
2022-12-31T02:53:12.695Z,48.38
2022-12-31T02:56:07.495Z,44.65
2022-12-31T02:58:59.519Z,49.08
2022-12-31T03:01:53.880Z,46.60
2022-12-31T03:04:34.522Z,50.15
2022-12-31T03:07:07.944Z,46.33
2022-12-31T03:09:36.266Z,45.22
2022-12-31T03:12:25.414Z,48.25
2022-12-31T03:14:53.150Z,47.23
2022-12-31T03:17:20.734Z,40.08
2022-12-31T03:20:06.515Z,42.10
2022-12-31T03:22:36.436Z,41.20
2022-12-31T03:27:56.549Z,45.72
2022-12-31T03:30:25.314Z,43.47
2022-12-31T03:32:53.835Z,48.30
2022-12-31T03:35:21.988Z,45.75
2022-12-31T03:37:50.333Z,42.67
2022-12-31T03:40:19.375Z,46.53
2022-12-31T03:42:46.793Z,47.77
2022-12-31T03:45:14.379Z,42.10
2022-12-31T03:47:41.711Z,45.15
2022-12-31T03:50:11.676Z,42.10
2022-12-31T03:52:39.008Z,42.70
2022-12-31T03:55:07.548Z,39.65
2022-12-31T03:57:35.021Z,43.53
2022-12-31T04:00:02.587Z,39.00
2022-12-31T04:02:31.982Z,45.00
2022-12-31T04:04:59.342Z,45.65
2022-12-31T04:07:26.632Z,42.78
2022-12-31T04:09:54.084Z,42.80
2022-12-31T04:12:21.464Z,38.45
2022-12-31T04:14:48.740Z,40.08
2022-12-31T04:17:16.006Z,41.70
2022-12-31T04:19:43.304Z,42.15
2022-12-31T04:22:11.458Z,45.10
2022-12-31T04:24:38.817Z,43.58
2022-12-31T04:27:08.049Z,43.78
2022-12-31T04:29:35.907Z,45.83
2022-12-31T04:32:05.364Z,38.17
2022-12-31T04:34:33.251Z,44.75
2022-12-31T04:37:00.576Z,42.67
2022-12-31T04:39:28.058Z,38.10
2022-12-31T04:41:55.462Z,40.53
2022-12-31T04:44:22.873Z,41.72
2022-12-31T04:46:50.102Z,42.13
2022-12-31T04:49:17.446Z,40.28
2022-12-31T04:51:44.703Z,37.97
2022-12-31T04:54:12.012Z,37.65
2022-12-31T04:56:39.289Z,47.22
2022-12-31T04:59:07.393Z,41.42
2022-12-31T05:01:36.776Z,40.33
2022-12-31T05:04:04.155Z,40.25
2022-12-31T05:06:31.428Z,47.10
2022-12-31T05:08:59.136Z,42.97
2022-12-31T05:11:26.508Z,41.03
2022-12-31T05:13:53.771Z,43.97
2022-12-31T05:16:21.129Z,37.28
2022-12-31T05:18:48.564Z,42.13
2022-12-31T05:21:21.190Z,38.50
2022-12-31T05:23:49.022Z,39.75
2022-12-31T05:26:17.278Z,40.88
2022-12-31T05:28:44.573Z,43.50
2022-12-31T05:31:12.095Z,43.38
2022-12-31T05:33:39.477Z,43.10
2022-12-31T05:36:07.648Z,44.40
2022-12-31T05:38:34.928Z,38.83
2022-12-31T05:41:05.550Z,39.38
2022-12-31T05:43:33.812Z,37.28
2022-12-31T05:46:02.362Z,40.72
2022-12-31T05:48:30.359Z,37.53
2022-12-31T05:50:58.672Z,42.63
2022-12-31T05:53:26.218Z,38.70
2022-12-31T05:55:53.603Z,39.25
2022-12-31T05:58:20.900Z,42.78
2022-12-31T06:00:48.352Z,46.38
2022-12-31T06:03:15.671Z,40.15
2022-12-31T06:05:43.112Z,40.30
2022-12-31T06:08:12.115Z,47.72
2022-12-31T06:10:40.577Z,40.07
2022-12-31T06:13:08.799Z,40.90
2022-12-31T06:15:39.716Z,35.03
2022-12-31T06:18:07.301Z,44.60
2022-12-31T06:20:37.853Z,43.35
2022-12-31T06:23:05.693Z,38.92
2022-12-31T06:25:35.542Z,39.70
2022-12-31T06:28:04.408Z,44.15
2022-12-31T06:30:32.425Z,40.00
2022-12-31T06:32:59.766Z,41.00
2022-12-31T06:35:27.405Z,42.10
2022-12-31T06:37:54.636Z,40.17
2022-12-31T06:40:22.000Z,43.55
2022-12-31T06:42:56.068Z,41.30
2022-12-31T06:45:27.583Z,39.28
2022-12-31T06:47:54.960Z,42.53
2022-12-31T06:50:22.206Z,42.88
2022-12-31T06:52:49.556Z,43.35
2022-12-31T06:55:17.101Z,48.00
2022-12-31T06:57:44.730Z,43.70
2022-12-31T07:00:13.655Z,38.97
2022-12-31T07:03:18.631Z,41.92
2022-12-31T07:05:56.412Z,43.70
2022-12-31T07:08:51.725Z,42.03
2022-12-31T07:11:24.215Z,45.72
2022-12-31T07:14:04.383Z,45.28
2022-12-31T07:17:04.547Z,47.85
2022-12-31T07:19:57.899Z,46.58
2022-12-31T07:22:25.727Z,47.45
2022-12-31T07:24:53.472Z,50.25
2022-12-31T07:27:29.563Z,50.08
2022-12-31T07:30:00.154Z,47.72
2022-12-31T07:32:59.851Z,47.22
2022-12-31T07:35:40.050Z,53.25
2022-12-31T07:38:28.665Z,55.25
2022-12-31T07:41:28.229Z,46.25
2022-12-31T07:44:30.101Z,45.78
2022-12-31T07:47:00.022Z,45.55
2022-12-31T07:51:56.641Z,37.08
2022-12-31T07:54:24.077Z,37.97
2022-12-31T07:56:51.951Z,45.60
2022-12-31T07:59:45.506Z,36.50
2022-12-31T08:02:24.135Z,36.88
2022-12-31T08:04:58.803Z,30.73
2022-12-31T08:07:41.458Z,32.20
2022-12-31T08:10:29.957Z,27.85
2022-12-31T08:13:02.348Z,34.30
2022-12-31T08:15:30.678Z,30.45
2022-12-31T08:17:58.408Z,30.63
2022-12-31T08:20:26.935Z,28.65
2022-12-31T08:23:03.133Z,30.40
2022-12-31T08:26:07.858Z,35.00
2022-12-31T08:29:08.948Z,28.42
2022-12-31T08:32:15.434Z,30.05
2022-12-31T08:34:48.727Z,29.90
2022-12-31T08:37:37.423Z,30.58
2022-12-31T08:40:14.353Z,34.47
2022-12-31T08:42:50.334Z,31.95
2022-12-31T08:45:35.954Z,37.53
2022-12-31T08:48:35.983Z,37.47
2022-12-31T08:51:04.245Z,34.97
2022-12-31T08:53:35.170Z,33.33
2022-12-31T08:56:13.082Z,32.95
2022-12-31T08:59:01.928Z,32.83
2022-12-31T09:01:41.454Z,33.45
2022-12-31T09:04:28.450Z,28.60
2022-12-31T09:07:02.437Z,31.90
2022-12-31T09:10:11.685Z,29.50
2022-12-31T09:12:53.538Z,30.70
2022-12-31T09:15:34.006Z,27.52
2022-12-31T09:18:01.614Z,27.85
2022-12-31T09:20:42.417Z,30.80
2022-12-31T09:23:12.516Z,30.90
2022-12-31T09:26:15.366Z,30.40
2022-12-31T09:28:52.293Z,22.95
2022-12-31T09:31:35.621Z,26.10
2022-12-31T09:34:14.909Z,27.90
2022-12-31T09:36:48.579Z,26.83
2022-12-31T09:39:42.142Z,26.45
2022-12-31T09:42:12.242Z,25.17
2022-12-31T09:45:17.061Z,25.52
2022-12-31T09:47:56.306Z,24.17
2022-12-31T09:50:56.616Z,23.48
2022-12-31T09:53:29.834Z,17.95
2022-12-31T09:56:20.388Z,22.02
2022-12-31T09:58:57.357Z,20.40
2022-12-31T10:01:46.036Z,21.67
2022-12-31T10:04:45.029Z,19.88
2022-12-31T10:07:24.280Z,21.90
2022-12-31T10:10:00.459Z,26.10
2022-12-31T10:12:33.701Z,18.55
2022-12-31T10:15:19.524Z,24.92
2022-12-31T10:17:55.928Z,16.73
2022-12-31T10:20:54.317Z,19.27
2022-12-31T10:23:52.340Z,18.45
2022-12-31T10:26:31.671Z,15.02
2022-12-31T10:29:44.987Z,17.95
2022-12-31T10:32:31.198Z,13.38
2022-12-31T10:35:02.490Z,16.27
2022-12-31T10:37:53.223Z,18.08
2022-12-31T10:40:42.381Z,15.27
2022-12-31T10:43:47.218Z,21.33
2022-12-31T10:46:36.590Z,16.52
2022-12-31T10:49:16.207Z,21.13
2022-12-31T10:52:25.643Z,20.33
2022-12-31T10:55:26.313Z,17.70
2022-12-31T10:58:17.909Z,17.63
2022-12-31T11:00:51.036Z,17.70
2022-12-31T11:03:49.703Z,18.83
2022-12-31T11:09:28.625Z,18.45
2022-12-31T11:12:29.811Z,17.23
2022-12-31T11:15:15.938Z,18.42
2022-12-31T11:17:52.341Z,21.48
2022-12-31T11:20:50.445Z,19.85
2022-12-31T11:24:01.062Z,19.25
2022-12-31T11:26:40.596Z,15.90
2022-12-31T11:29:29.633Z,21.40
2022-12-31T11:32:23.647Z,17.98
2022-12-31T11:35:12.156Z,16.05
2022-12-31T11:37:45.121Z,13.55
2022-12-31T11:40:21.751Z,15.55
2022-12-31T11:43:04.870Z,17.00
2022-12-31T11:46:02.580Z,17.02
2022-12-31T11:48:35.906Z,13.60
2022-12-31T11:51:22.008Z,9.57
2022-12-31T11:54:27.080Z,9.68
2022-12-31T11:57:04.677Z,16.55
2022-12-31T11:59:32.137Z,15.68
2022-12-31T12:02:25.096Z,11.15
2022-12-31T12:04:53.610Z,9.65
2022-12-31T12:07:24.094Z,14.63
2022-12-31T12:09:54.588Z,12.75
2022-12-31T12:12:22.475Z,12.35
2022-12-31T12:14:53.743Z,11.80
2022-12-31T12:17:32.569Z,16.00
2022-12-31T12:20:13.511Z,10.07
2022-12-31T12:22:52.487Z,14.65
2022-12-31T12:25:22.456Z,10.40
2022-12-31T12:27:49.701Z,10.90
2022-12-31T12:30:21.975Z,23.65
2022-12-31T12:33:01.379Z,15.27
2022-12-31T12:35:34.828Z,13.88
2022-12-31T12:38:05.582Z,12.98
2022-12-31T12:40:35.021Z,11.52
2022-12-31T12:43:02.952Z,16.10
2022-12-31T12:45:51.484Z,14.05
2022-12-31T12:48:28.924Z,13.20
2022-12-31T12:50:56.202Z,14.35
2022-12-31T12:53:32.486Z,13.45
2022-12-31T12:56:08.962Z,16.33
2022-12-31T12:58:54.726Z,12.93
2022-12-31T13:01:47.830Z,12.45
2022-12-31T13:04:35.209Z,12.65
2022-12-31T13:07:19.499Z,16.52
2022-12-31T13:10:20.631Z,14.45
2022-12-31T13:15:58.834Z,13.40
2022-12-31T13:19:09.596Z,19.30
2022-12-31T13:21:51.153Z,25.38
2022-12-31T13:24:53.545Z,28.08
2022-12-31T13:27:29.763Z,27.63
2022-12-31T13:30:01.563Z,29.95
2022-12-31T13:32:43.066Z,34.08
2022-12-31T13:35:45.722Z,30.80
2022-12-31T13:38:18.721Z,27.52
2022-12-31T13:40:57.124Z,31.48
2022-12-31T13:43:51.139Z,30.45
2022-12-31T13:46:44.310Z,34.10
2022-12-31T13:49:26.711Z,34.63
2022-12-31T13:52:18.889Z,36.83
2022-12-31T13:55:23.941Z,36.22
2022-12-31T13:58:09.436Z,37.38
2022-12-31T14:01:15.091Z,35.83
2022-12-31T14:03:59.377Z,33.15
2022-12-31T14:06:34.143Z,39.30
2022-12-31T14:09:01.720Z,35.92
2022-12-31T14:11:59.887Z,31.33
2022-12-31T14:14:54.527Z,33.30
2022-12-31T14:17:30.818Z,32.63
2022-12-31T14:20:21.262Z,32.67
2022-12-31T14:23:09.722Z,32.58
2022-12-31T14:25:42.836Z,29.00
2022-12-31T14:28:23.951Z,32.00
2022-12-31T14:31:00.503Z,27.83
2022-12-31T14:33:54.237Z,29.17
2022-12-31T14:36:46.438Z,35.60
2022-12-31T14:39:26.884Z,37.63
2022-12-31T14:42:13.599Z,35.03
2022-12-31T14:45:25.156Z,32.85
2022-12-31T14:48:10.812Z,31.23
2022-12-31T14:50:38.671Z,37.65
2022-12-31T14:53:07.526Z,36.47
2022-12-31T14:55:37.044Z,36.35
2022-12-31T14:58:29.623Z,36.17
2022-12-31T15:01:03.495Z,38.22
2022-12-31T15:03:30.897Z,37.72
2022-12-31T15:06:07.227Z,36.65
2022-12-31T15:08:56.058Z,37.00
2022-12-31T15:12:00.447Z,39.92
2022-12-31T15:14:56.730Z,41.50
2022-12-31T15:17:43.165Z,39.35
2022-12-31T15:20:48.133Z,47.15
2022-12-31T15:23:25.119Z,42.75
2022-12-31T15:26:02.517Z,45.72
2022-12-31T15:28:36.439Z,47.22
2022-12-31T15:31:20.979Z,51.83
2022-12-31T15:33:56.790Z,45.72
2022-12-31T15:36:30.449Z,40.88
2022-12-31T15:39:07.699Z,43.47
2022-12-31T15:42:03.190Z,48.08
2022-12-31T15:44:44.657Z,57.33
2022-12-31T15:47:26.065Z,41.50
2022-12-31T15:49:54.741Z,43.30
2022-12-31T15:52:44.075Z,38.85
2022-12-31T15:55:34.433Z,43.30
2022-12-31T15:58:06.105Z,42.60
2022-12-31T16:00:54.782Z,49.60
2022-12-31T16:03:28.170Z,57.42
2022-12-31T16:06:01.023Z,56.53
2022-12-31T16:08:34.943Z,50.92
2022-12-31T16:11:05.901Z,56.00
2022-12-31T16:13:37.166Z,57.63
2022-12-31T16:16:15.129Z,54.50
2022-12-31T16:18:44.204Z,62.30
2022-12-31T16:21:24.859Z,57.70
2022-12-31T16:23:57.747Z,59.75
2022-12-31T16:26:31.791Z,58.28
2022-12-31T16:29:04.532Z,57.53
2022-12-31T16:31:32.134Z,67.25
2022-12-31T16:34:12.394Z,62.30
2022-12-31T16:36:39.801Z,60.03
2022-12-31T16:39:37.657Z,55.10
2022-12-31T16:42:13.714Z,50.38
2022-12-31T16:44:41.819Z,57.50
2022-12-31T16:47:15.064Z,61.80
2022-12-31T16:49:42.943Z,48.85
2022-12-31T16:52:28.419Z,49.47
2022-12-31T16:54:57.279Z,72.63
2022-12-31T16:57:28.953Z,85.78
2022-12-31T17:00:04.917Z,71.43
2022-12-31T17:02:39.899Z,63.80
2022-12-31T17:05:25.063Z,64.80
2022-12-31T17:07:52.931Z,56.65
2022-12-31T17:10:24.492Z,51.22
2022-12-31T17:15:45.220Z,51.95
2022-12-31T17:18:20.645Z,55.13
2022-12-31T17:20:50.530Z,54.10
2022-12-31T17:23:31.732Z,49.10
2022-12-31T17:26:22.316Z,45.58
2022-12-31T17:28:52.317Z,56.15
2022-12-31T17:34:15.097Z,44.03
2022-12-31T17:36:58.011Z,52.15
2022-12-31T17:39:26.705Z,55.90
2022-12-31T17:41:57.785Z,46.93
2022-12-31T17:44:31.463Z,58.03
2022-12-31T17:46:58.956Z,60.53
2022-12-31T17:49:31.645Z,66.60
2022-12-31T17:51:59.075Z,61.80
2022-12-31T17:54:26.494Z,75.55
2022-12-31T17:56:54.254Z,68.75
2022-12-31T17:59:24.650Z,67.45
2022-12-31T18:01:52.121Z,62.60
2022-12-31T18:04:20.824Z,61.03
2022-12-31T18:06:48.279Z,65.82
2022-12-31T18:09:16.517Z,59.00
2022-12-31T18:11:44.998Z,60.45
2022-12-31T18:14:15.062Z,50.33
2022-12-31T18:16:42.619Z,57.35
2022-12-31T18:19:37.820Z,59.03
2022-12-31T18:22:02.303Z,51.95
2022-12-31T18:24:29.636Z,56.17
2022-12-31T18:26:56.888Z,44.05
2022-12-31T18:29:24.120Z,47.15
2022-12-31T18:31:51.703Z,39.42
2022-12-31T18:34:19.167Z,42.15
2022-12-31T18:36:46.583Z,62.70
2022-12-31T18:39:14.133Z,43.80
2022-12-31T18:41:45.902Z,45.17
2022-12-31T18:44:15.057Z,52.55
2022-12-31T18:46:43.019Z,39.42
2022-12-31T18:49:10.608Z,46.40
2022-12-31T18:51:37.941Z,61.33
2022-12-31T18:54:06.834Z,59.50
2022-12-31T18:56:34.150Z,54.08
2022-12-31T18:59:02.950Z,52.50
2022-12-31T19:01:33.104Z,49.97
2022-12-31T19:04:12.214Z,49.53
2022-12-31T19:06:39.872Z,51.90
2022-12-31T19:09:23.907Z,57.13
2022-12-31T19:11:54.826Z,67.07
2022-12-31T19:14:24.306Z,58.80
2022-12-31T19:16:53.346Z,60.97
2022-12-31T19:19:21.050Z,55.20
2022-12-31T19:21:48.312Z,50.38
2022-12-31T19:24:19.166Z,58.97
2022-12-31T19:26:46.654Z,73.05
2022-12-31T19:29:22.255Z,71.40
2022-12-31T19:31:49.781Z,69.60
2022-12-31T19:34:17.204Z,58.88
2022-12-31T19:36:44.962Z,65.55
2022-12-31T19:39:17.761Z,55.60
2022-12-31T19:41:45.933Z,64.60
2022-12-31T19:44:18.191Z,64.10
2022-12-31T19:46:46.849Z,66.53
2022-12-31T19:49:15.085Z,71.00
2022-12-31T19:51:42.459Z,65.50
2022-12-31T19:54:12.678Z,58.33
2022-12-31T19:56:40.171Z,67.63
2022-12-31T19:59:09.661Z,58.10
2022-12-31T20:01:37.494Z,60.17
2022-12-31T20:04:05.046Z,68.65
2022-12-31T20:06:32.385Z,60.83
2022-12-31T20:08:59.595Z,62.20
2022-12-31T20:11:26.918Z,69.35
2022-12-31T20:13:54.314Z,59.28
2022-12-31T20:16:24.033Z,57.88
2022-12-31T20:18:51.524Z,57.92
2022-12-31T20:21:21.791Z,59.22
2022-12-31T20:23:50.939Z,60.88
2022-12-31T20:26:19.076Z,55.67
2022-12-31T20:28:46.706Z,61.10
2022-12-31T20:31:16.816Z,51.45
2022-12-31T20:33:44.902Z,59.45
2022-12-31T20:36:14.167Z,54.50
2022-12-31T20:38:41.847Z,51.33
2022-12-31T20:41:15.287Z,51.75
2022-12-31T20:43:43.826Z,48.25
2022-12-31T20:46:31.445Z,45.05
2022-12-31T20:49:01.131Z,47.42
2022-12-31T20:51:31.261Z,45.15
2022-12-31T20:54:01.841Z,38.90
2022-12-31T20:56:32.543Z,48.22
2022-12-31T20:59:00.658Z,46.50
2022-12-31T21:01:41.809Z,44.63
2022-12-31T21:04:15.520Z,43.80
2022-12-31T21:06:43.102Z,41.30
2022-12-31T21:09:10.520Z,41.15
2022-12-31T21:11:56.260Z,51.58
2022-12-31T21:14:23.572Z,43.17
2022-12-31T21:16:50.875Z,46.53
2022-12-31T21:19:18.152Z,50.13
2022-12-31T21:21:45.441Z,47.70
2022-12-31T21:24:12.683Z,54.15
2022-12-31T21:26:39.884Z,48.25
2022-12-31T21:29:07.213Z,47.72
2022-12-31T21:31:34.584Z,51.33
2022-12-31T21:34:01.882Z,50.33
2022-12-31T21:36:29.315Z,48.38
2022-12-31T21:38:56.783Z,47.97
2022-12-31T21:41:47.096Z,48.42
2022-12-31T21:44:14.577Z,48.97
2022-12-31T21:47:00.887Z,47.50
2022-12-31T21:49:29.337Z,47.83
2022-12-31T21:52:28.907Z,45.08
2022-12-31T21:55:37.424Z,43.40
2022-12-31T22:01:10.371Z,43.65
2022-12-31T22:03:38.384Z,44.50
2022-12-31T22:06:13.187Z,41.03
2022-12-31T22:08:42.845Z,45.83
2022-12-31T22:11:11.912Z,50.15
2022-12-31T22:13:40.391Z,43.70
2022-12-31T22:16:08.934Z,47.60
2022-12-31T22:18:41.247Z,42.45
2022-12-31T22:21:18.455Z,45.63
2022-12-31T22:23:52.132Z,38.28
2022-12-31T22:26:22.354Z,41.10
2022-12-31T22:28:50.576Z,38.30
2022-12-31T22:31:24.801Z,36.13
2022-12-31T22:33:53.072Z,38.20
2022-12-31T22:36:21.800Z,39.50
2022-12-31T22:38:50.895Z,37.15
2022-12-31T22:41:20.819Z,42.38
2022-12-31T22:43:50.115Z,43.13
2022-12-31T22:46:20.294Z,39.13
2022-12-31T22:48:48.244Z,66.65
2022-12-31T22:51:16.795Z,38.22
2022-12-31T22:53:44.713Z,45.60
2022-12-31T22:56:14.626Z,39.40
2022-12-31T23:01:22.365Z,38.88
2022-12-31T23:03:51.453Z,43.28
2022-12-31T23:06:20.294Z,44.10
2022-12-31T23:09:06.107Z,81.10
2022-12-31T23:11:35.294Z,75.82
2022-12-31T23:14:21.629Z,103.45
2022-12-31T23:17:30.950Z,89.15
2022-12-31T23:20:13.440Z,86.18
2022-12-31T23:22:59.222Z,85.53
2022-12-31T23:25:26.729Z,81.53
2022-12-31T23:27:53.970Z,81.30
2022-12-31T23:30:21.336Z,70.10
2022-12-31T23:32:48.862Z,75.93
2022-12-31T23:35:16.439Z,72.68
2022-12-31T23:37:43.661Z,68.90
2022-12-31T23:40:17.217Z,65.95
2022-12-31T23:42:48.537Z,71.88
2022-12-31T23:45:15.943Z,66.53
2022-12-31T23:47:43.310Z,65.57
2022-12-31T23:50:10.632Z,62.97
2022-12-31T23:52:37.878Z,57.10
2022-12-31T23:55:05.287Z,51.85
2022-12-31T23:57:32.793Z,52.78
